LFQQ/LIL METAR and TAF weather

Enter ICAO airport designator
Station Type Date Time Source
LFQQ METAR 2022/12/05 13:30 UTC NOAA

LFQQ 051330Z AUTO 33004KT 4200 BR OVC005 04/03 Q1020 TEMPO 2500 DZ BR


Station Type Date Time Source
LFQQ Decoded METAR 2022/12/05 13:30 UTC NOAA

Lille, France (LFQQ) 50-34N 003-06E 52M
Dec 05, 2022 - 08:30 AM EST / 2022.12.05 1330 UTC
Wind: from the NNW (330 degrees) at 5 MPH (4 KT):0
Visibility: 2 mile(s):0
Sky conditions: overcast
Weather: mist
Temperature: 39 F (4 C)
Dew Point: 37 F (3 C)
Relative Humidity: 93%
Pressure (altimeter): 30.12 in. Hg (1020 hPa)
ob: LFQQ 051330Z AUTO 33004KT 4200 BR OVC005 04/03 Q1020 TEMPO 2500 DZ BR
cycle: 13

Station Type Date Time Source
LFQQ TAF 2022/12/05 12:21 UTC NOAA

TAF LFQQ 051100Z 0512/0618 01005KT 6000 OVC007
TEMPO 0512/0521 2500 DZ BR OVC003
BECMG 0521/0524 2000 BR OVC002 PROB40 0600/0611 0300 FG VV/// PROB30
TEMPO 0611/0615 6000 NSW BKN007

Example: see airport list